sensor_id;sensor_type;location;lat;lon;timestamp;temperature;humidity
67870;DHT22;54673;52.262;6.830;2022-08-19T00:01:28;24.90;52.70
67870;DHT22;54673;52.262;6.830;2022-08-19T00:03:55;24.90;52.60
67870;DHT22;54673;52.262;6.830;2022-08-19T00:06:21;24.90;52.70
67870;DHT22;54673;52.262;6.830;2022-08-19T00:08:46;24.90;52.60
67870;DHT22;54673;52.262;6.830;2022-08-19T00:11:12;24.80;52.60
67870;DHT22;54673;52.262;6.830;2022-08-19T00:13:38;24.90;52.60
67870;DHT22;54673;52.262;6.830;2022-08-19T00:16:05;24.90;52.70
67870;DHT22;54673;52.262;6.830;2022-08-19T00:18:31;24.90;52.50
67870;DHT22;54673;52.262;6.830;2022-08-19T00:20:58;24.90;52.60
67870;DHT22;54673;52.262;6.830;2022-08-19T00:23:25;24.80;52.40
67870;DHT22;54673;52.262;6.830;2022-08-19T00:25:51;24.80;52.40
67870;DHT22;54673;52.262;6.830;2022-08-19T00:28:17;24.80;52.60
67870;DHT22;54673;52.262;6.830;2022-08-19T00:30:43;24.80;52.40
67870;DHT22;54673;52.262;6.830;2022-08-19T00:33:09;24.80;52.30
67870;DHT22;54673;52.262;6.830;2022-08-19T00:35:35;24.80;52.30
67870;DHT22;54673;52.262;6.830;2022-08-19T00:38:01;24.80;52.20
67870;DHT22;54673;52.262;6.830;2022-08-19T00:40:26;24.80;52.20
67870;DHT22;54673;52.262;6.830;2022-08-19T00:42:52;24.80;52.00
67870;DHT22;54673;52.262;6.830;2022-08-19T00:45:25;24.70;51.70
67870;DHT22;54673;52.262;6.830;2022-08-19T00:47:51;24.70;51.40
67870;DHT22;54673;52.262;6.830;2022-08-19T00:50:20;24.70;51.50
67870;DHT22;54673;52.262;6.830;2022-08-19T00:52:49;24.70;51.50
67870;DHT22;54673;52.262;6.830;2022-08-19T00:55:24;24.60;51.20
67870;DHT22;54673;52.262;6.830;2022-08-19T00:57:55;24.60;51.30
67870;DHT22;54673;52.262;6.830;2022-08-19T01:00:23;24.60;51.30
67870;DHT22;54673;52.262;6.830;2022-08-19T01:02:49;24.60;51.40
67870;DHT22;54673;52.262;6.830;2022-08-19T01:05:18;24.60;51.60
67870;DHT22;54673;52.262;6.830;2022-08-19T01:07:45;24.60;51.80
67870;DHT22;54673;52.262;6.830;2022-08-19T01:10:17;24.60;52.00
67870;DHT22;54673;52.262;6.830;2022-08-19T01:12:45;24.60;52.00
67870;DHT22;54673;52.262;6.830;2022-08-19T01:15:12;24.60;52.10
67870;DHT22;54673;52.262;6.830;2022-08-19T01:17:40;24.60;52.00
67870;DHT22;54673;52.262;6.830;2022-08-19T01:20:12;24.50;51.90
67870;DHT22;54673;52.262;6.830;2022-08-19T01:22:58;24.50;51.80
67870;DHT22;54673;52.262;6.830;2022-08-19T01:25:28;24.50;51.90
67870;DHT22;54673;52.262;6.830;2022-08-19T01:27:55;24.60;51.80
67870;DHT22;54673;52.262;6.830;2022-08-19T01:30:28;24.50;51.70
67870;DHT22;54673;52.262;6.830;2022-08-19T01:32:54;24.50;51.80
67870;DHT22;54673;52.262;6.830;2022-08-19T01:35:22;24.50;51.60
67870;DHT22;54673;52.262;6.830;2022-08-19T01:38:01;24.50;51.50
67870;DHT22;54673;52.262;6.830;2022-08-19T01:40:31;24.50;51.50
67870;DHT22;54673;52.262;6.830;2022-08-19T01:42:57;24.50;51.40
67870;DHT22;54673;52.262;6.830;2022-08-19T01:45:26;24.50;51.20
67870;DHT22;54673;52.262;6.830;2022-08-19T01:47:52;24.50;51.20
67870;DHT22;54673;52.262;6.830;2022-08-19T01:50:18;24.50;51.30
67870;DHT22;54673;52.262;6.830;2022-08-19T01:52:44;24.40;51.20
67870;DHT22;54673;52.262;6.830;2022-08-19T01:55:13;24.50;51.20
67870;DHT22;54673;52.262;6.830;2022-08-19T01:57:42;24.40;51.00
67870;DHT22;54673;52.262;6.830;2022-08-19T02:00:11;24.40;50.90
67870;DHT22;54673;52.262;6.830;2022-08-19T02:02:37;24.40;50.90
67870;DHT22;54673;52.262;6.830;2022-08-19T02:05:03;24.40;50.90
67870;DHT22;54673;52.262;6.830;2022-08-19T02:07:29;24.40;50.80
67870;DHT22;54673;52.262;6.830;2022-08-19T02:09:55;24.40;50.70
67870;DHT22;54673;52.262;6.830;2022-08-19T02:12:21;24.40;50.70
67870;DHT22;54673;52.262;6.830;2022-08-19T02:14:47;24.40;51.40
67870;DHT22;54673;52.262;6.830;2022-08-19T02:17:13;24.40;50.70
67870;DHT22;54673;52.262;6.830;2022-08-19T02:19:38;24.40;50.70
67870;DHT22;54673;52.262;6.830;2022-08-19T02:22:04;24.40;50.80
67870;DHT22;54673;52.262;6.830;2022-08-19T02:24:30;24.30;50.70
67870;DHT22;54673;52.262;6.830;2022-08-19T02:26:55;24.30;50.60
67870;DHT22;54673;52.262;6.830;2022-08-19T02:29:21;24.30;50.60
67870;DHT22;54673;52.262;6.830;2022-08-19T02:31:46;24.30;50.60
67870;DHT22;54673;52.262;6.830;2022-08-19T02:34:12;24.30;50.50
67870;DHT22;54673;52.262;6.830;2022-08-19T02:36:38;24.30;50.40
67870;DHT22;54673;52.262;6.830;2022-08-19T02:39:04;24.30;50.40
67870;DHT22;54673;52.262;6.830;2022-08-19T02:41:32;24.30;50.40
67870;DHT22;54673;52.262;6.830;2022-08-19T02:44:00;24.20;50.30
67870;DHT22;54673;52.262;6.830;2022-08-19T02:46:29;24.20;50.20
67870;DHT22;54673;52.262;6.830;2022-08-19T02:48:58;24.20;50.20
67870;DHT22;54673;52.262;6.830;2022-08-19T02:51:31;24.20;50.30
67870;DHT22;54673;52.262;6.830;2022-08-19T02:53:56;24.20;50.50
67870;DHT22;54673;52.262;6.830;2022-08-19T02:56:22;24.20;50.40
67870;DHT22;54673;52.262;6.830;2022-08-19T02:58:49;24.10;50.20
67870;DHT22;54673;52.262;6.830;2022-08-19T03:01:28;24.10;50.20
67870;DHT22;54673;52.262;6.830;2022-08-19T03:03:54;24.10;50.20
67870;DHT22;54673;52.262;6.830;2022-08-19T03:06:20;24.20;50.30
67870;DHT22;54673;52.262;6.830;2022-08-19T03:08:48;24.10;50.00
67870;DHT22;54673;52.262;6.830;2022-08-19T03:11:31;24.10;49.90
67870;DHT22;54673;52.262;6.830;2022-08-19T03:13:57;24.10;50.10
67870;DHT22;54673;52.262;6.830;2022-08-19T03:16:25;24.10;50.00
67870;DHT22;54673;52.262;6.830;2022-08-19T03:18:52;24.10;50.00
67870;DHT22;54673;52.262;6.830;2022-08-19T03:21:24;24.10;49.90
67870;DHT22;54673;52.262;6.830;2022-08-19T03:23:53;24.10;50.00
67870;DHT22;54673;52.262;6.830;2022-08-19T03:26:18;24.10;49.90
67870;DHT22;54673;52.262;6.830;2022-08-19T03:28:45;24.10;49.90
67870;DHT22;54673;52.262;6.830;2022-08-19T03:31:17;24.10;49.80
67870;DHT22;54673;52.262;6.830;2022-08-19T03:33:44;24.10;49.70
67870;DHT22;54673;52.262;6.830;2022-08-19T03:36:13;24.10;49.70
67870;DHT22;54673;52.262;6.830;2022-08-19T03:38:42;24.00;49.60
67870;DHT22;54673;52.262;6.830;2022-08-19T03:41:12;24.10;49.60
67870;DHT22;54673;52.262;6.830;2022-08-19T03:43:40;24.00;49.60
67870;DHT22;54673;52.262;6.830;2022-08-19T03:46:12;24.00;49.60
67870;DHT22;54673;52.262;6.830;2022-08-19T03:48:39;24.00;49.60
67870;DHT22;54673;52.262;6.830;2022-08-19T03:51:05;24.00;49.70
67870;DHT22;54673;52.262;6.830;2022-08-19T03:53:32;24.00;49.70
67870;DHT22;54673;52.262;6.830;2022-08-19T03:55:59;23.90;49.80
67870;DHT22;54673;52.262;6.830;2022-08-19T03:58:29;24.00;49.80
67870;DHT22;54673;52.262;6.830;2022-08-19T04:00:55;23.90;49.60
67870;DHT22;54673;52.262;6.830;2022-08-19T04:03:23;24.00;49.60
67870;DHT22;54673;52.262;6.830;2022-08-19T04:05:48;23.90;49.60
67870;DHT22;54673;52.262;6.830;2022-08-19T04:08:15;23.90;49.50
67870;DHT22;54673;52.262;6.830;2022-08-19T04:10:44;23.90;49.60
67870;DHT22;54673;52.262;6.830;2022-08-19T04:13:09;23.90;49.70
67870;DHT22;54673;52.262;6.830;2022-08-19T04:15:40;23.90;49.80
67870;DHT22;54673;52.262;6.830;2022-08-19T04:18:07;23.90;49.80
67870;DHT22;54673;52.262;6.830;2022-08-19T04:20:42;23.90;49.50
67870;DHT22;54673;52.262;6.830;2022-08-19T04:23:08;23.90;49.60
67870;DHT22;54673;52.262;6.830;2022-08-19T04:25:43;23.90;49.60
67870;DHT22;54673;52.262;6.830;2022-08-19T04:28:12;23.90;49.70
67870;DHT22;54673;52.262;6.830;2022-08-19T04:30:40;23.90;49.70
67870;DHT22;54673;52.262;6.830;2022-08-19T04:33:05;23.90;49.70
67870;DHT22;54673;52.262;6.830;2022-08-19T04:35:42;23.90;49.70
67870;DHT22;54673;52.262;6.830;2022-08-19T04:38:09;23.80;49.70
67870;DHT22;54673;52.262;6.830;2022-08-19T04:40:49;23.80;49.80
67870;DHT22;54673;52.262;6.830;2022-08-19T04:43:35;23.80;49.80
67870;DHT22;54673;52.262;6.830;2022-08-19T04:46:09;23.80;49.70
67870;DHT22;54673;52.262;6.830;2022-08-19T04:48:35;23.80;49.80
67870;DHT22;54673;52.262;6.830;2022-08-19T04:51:06;23.80;49.80
67870;DHT22;54673;52.262;6.830;2022-08-19T04:53:33;23.80;49.70
67870;DHT22;54673;52.262;6.830;2022-08-19T04:56:03;23.80;49.70
67870;DHT22;54673;52.262;6.830;2022-08-19T04:58:29;23.80;49.60
67870;DHT22;54673;52.262;6.830;2022-08-19T05:00:54;23.80;49.50
67870;DHT22;54673;52.262;6.830;2022-08-19T05:03:20;23.80;49.50
67870;DHT22;54673;52.262;6.830;2022-08-19T05:05:47;23.80;49.50
67870;DHT22;54673;52.262;6.830;2022-08-19T05:08:20;23.70;49.50
67870;DHT22;54673;52.262;6.830;2022-08-19T05:10:50;23.70;49.50
67870;DHT22;54673;52.262;6.830;2022-08-19T05:13:18;23.70;49.60
67870;DHT22;54673;52.262;6.830;2022-08-19T05:15:45;23.70;49.60
67870;DHT22;54673;52.262;6.830;2022-08-19T05:18:18;23.70;49.60
67870;DHT22;54673;52.262;6.830;2022-08-19T05:21:09;23.70;49.60
67870;DHT22;54673;52.262;6.830;2022-08-19T05:23:54;23.70;49.50
67870;DHT22;54673;52.262;6.830;2022-08-19T05:26:19;23.70;49.50
67870;DHT22;54673;52.262;6.830;2022-08-19T05:28:45;23.70;49.60
67870;DHT22;54673;52.262;6.830;2022-08-19T05:31:10;23.70;49.60
67870;DHT22;54673;52.262;6.830;2022-08-19T05:33:36;23.80;49.90
67870;DHT22;54673;52.262;6.830;2022-08-19T05:36:02;23.80;50.00
67870;DHT22;54673;52.262;6.830;2022-08-19T05:38:28;23.90;50.30
67870;DHT22;54673;52.262;6.830;2022-08-19T05:40:55;23.80;50.50
67870;DHT22;54673;52.262;6.830;2022-08-19T05:43:21;23.80;50.60
67870;DHT22;54673;52.262;6.830;2022-08-19T05:45:46;23.80;50.40
67870;DHT22;54673;52.262;6.830;2022-08-19T05:48:12;23.80;50.60
67870;DHT22;54673;52.262;6.830;2022-08-19T05:50:39;23.90;50.70
67870;DHT22;54673;52.262;6.830;2022-08-19T05:53:05;23.80;50.70
67870;DHT22;54673;52.262;6.830;2022-08-19T05:55:32;23.80;50.60
67870;DHT22;54673;52.262;6.830;2022-08-19T05:57:57;23.90;50.60
67870;DHT22;54673;52.262;6.830;2022-08-19T06:00:23;23.90;50.70
67870;DHT22;54673;52.262;6.830;2022-08-19T06:02:49;23.80;50.60
67870;DHT22;54673;52.262;6.830;2022-08-19T06:05:16;23.90;50.70
67870;DHT22;54673;52.262;6.830;2022-08-19T06:07:41;23.90;50.80
67870;DHT22;54673;52.262;6.830;2022-08-19T06:10:10;23.90;50.80
67870;DHT22;54673;52.262;6.830;2022-08-19T06:12:36;23.90;51.10
67870;DHT22;54673;52.262;6.830;2022-08-19T06:15:08;23.90;51.10
67870;DHT22;54673;52.262;6.830;2022-08-19T06:17:34;23.90;51.20
67870;DHT22;54673;52.262;6.830;2022-08-19T06:20:00;23.90;50.90
67870;DHT22;54673;52.262;6.830;2022-08-19T06:22:27;23.90;50.90
67870;DHT22;54673;52.262;6.830;2022-08-19T06:24:53;23.80;50.80
67870;DHT22;54673;52.262;6.830;2022-08-19T06:27:19;23.90;50.90
67870;DHT22;54673;52.262;6.830;2022-08-19T06:29:45;23.90;51.10
67870;DHT22;54673;52.262;6.830;2022-08-19T06:32:12;24.00;51.80
67870;DHT22;54673;52.262;6.830;2022-08-19T06:34:38;24.00;51.70
67870;DHT22;54673;52.262;6.830;2022-08-19T06:37:04;24.10;51.80
67870;DHT22;54673;52.262;6.830;2022-08-19T06:39:35;24.10;51.80
67870;DHT22;54673;52.262;6.830;2022-08-19T06:42:02;24.20;52.40
67870;DHT22;54673;52.262;6.830;2022-08-19T06:44:31;24.20;52.50
67870;DHT22;54673;52.262;6.830;2022-08-19T06:47:04;24.20;51.70
67870;DHT22;54673;52.262;6.830;2022-08-19T06:49:30;24.20;52.10
67870;DHT22;54673;52.262;6.830;2022-08-19T06:51:58;24.20;52.30
67870;DHT22;54673;52.262;6.830;2022-08-19T06:54:25;24.20;52.90
67870;DHT22;54673;52.262;6.830;2022-08-19T06:56:52;24.20;53.40
67870;DHT22;54673;52.262;6.830;2022-08-19T06:59:20;24.20;53.60
67870;DHT22;54673;52.262;6.830;2022-08-19T07:01:51;24.20;53.50
67870;DHT22;54673;52.262;6.830;2022-08-19T07:04:20;24.20;53.70
67870;DHT22;54673;52.262;6.830;2022-08-19T07:06:46;24.20;54.30
67870;DHT22;54673;52.262;6.830;2022-08-19T07:09:15;24.20;54.20
67870;DHT22;54673;52.262;6.830;2022-08-19T07:11:48;24.20;54.10
67870;DHT22;54673;52.262;6.830;2022-08-19T07:14:15;24.20;54.00
67870;DHT22;54673;52.262;6.830;2022-08-19T07:16:44;24.30;53.60
67870;DHT22;54673;52.262;6.830;2022-08-19T07:19:11;24.40;54.00
67870;DHT22;54673;52.262;6.830;2022-08-19T07:21:37;24.40;54.50
67870;DHT22;54673;52.262;6.830;2022-08-19T07:24:03;24.30;54.50
67870;DHT22;54673;52.262;6.830;2022-08-19T07:26:32;24.40;54.20
67870;DHT22;54673;52.262;6.830;2022-08-19T07:28:58;24.40;54.50
67870;DHT22;54673;52.262;6.830;2022-08-19T07:31:27;24.40;55.10
67870;DHT22;54673;52.262;6.830;2022-08-19T07:33:55;24.40;55.50
67870;DHT22;54673;52.262;6.830;2022-08-19T07:36:25;24.40;55.40
67870;DHT22;54673;52.262;6.830;2022-08-19T07:38:56;24.40;55.40
67870;DHT22;54673;52.262;6.830;2022-08-19T07:41:24;24.40;55.50
67870;DHT22;54673;52.262;6.830;2022-08-19T07:43:50;24.40;55.50
67870;DHT22;54673;52.262;6.830;2022-08-19T07:46:17;24.40;55.90
67870;DHT22;54673;52.262;6.830;2022-08-19T07:48:46;24.40;56.00
67870;DHT22;54673;52.262;6.830;2022-08-19T07:51:14;24.40;55.60
67870;DHT22;54673;52.262;6.830;2022-08-19T07:53:40;24.50;56.10
67870;DHT22;54673;52.262;6.830;2022-08-19T07:56:06;24.50;55.40
67870;DHT22;54673;52.262;6.830;2022-08-19T07:58:36;24.50;55.70
67870;DHT22;54673;52.262;6.830;2022-08-19T08:01:03;24.50;55.90
67870;DHT22;54673;52.262;6.830;2022-08-19T08:03:29;24.40;55.80
67870;DHT22;54673;52.262;6.830;2022-08-19T08:06:15;24.40;55.80
67870;DHT22;54673;52.262;6.830;2022-08-19T08:09:02;24.40;56.00
67870;DHT22;54673;52.262;6.830;2022-08-19T08:11:42;24.40;56.10
67870;DHT22;54673;52.262;6.830;2022-08-19T08:14:18;24.40;56.10
67870;DHT22;54673;52.262;6.830;2022-08-19T08:16:44;24.50;56.10
67870;DHT22;54673;52.262;6.830;2022-08-19T08:19:11;24.40;56.20
67870;DHT22;54673;52.262;6.830;2022-08-19T08:21:37;24.50;56.40
67870;DHT22;54673;52.262;6.830;2022-08-19T08:24:02;24.40;56.10
67870;DHT22;54673;52.262;6.830;2022-08-19T08:26:28;24.50;56.30
67870;DHT22;54673;52.262;6.830;2022-08-19T08:28:54;24.50;56.70
67870;DHT22;54673;52.262;6.830;2022-08-19T08:31:20;24.50;56.60
67870;DHT22;54673;52.262;6.830;2022-08-19T08:33:46;24.50;56.60
67870;DHT22;54673;52.262;6.830;2022-08-19T08:36:13;24.50;56.70
67870;DHT22;54673;52.262;6.830;2022-08-19T08:38:40;24.50;56.80
67870;DHT22;54673;52.262;6.830;2022-08-19T08:43:46;24.50;57.10
67870;DHT22;54673;52.262;6.830;2022-08-19T08:46:37;24.50;57.10
67870;DHT22;54673;52.262;6.830;2022-08-19T08:52:18;24.60;57.00
67870;DHT22;54673;52.262;6.830;2022-08-19T08:54:46;24.60;57.00
67870;DHT22;54673;52.262;6.830;2022-08-19T08:57:21;24.60;57.00
67870;DHT22;54673;52.262;6.830;2022-08-19T08:59:50;24.60;56.90
67870;DHT22;54673;52.262;6.830;2022-08-19T09:02:19;24.60;56.40
67870;DHT22;54673;52.262;6.830;2022-08-19T09:04:45;24.60;55.70
67870;DHT22;54673;52.262;6.830;2022-08-19T09:07:20;24.60;55.30
67870;DHT22;54673;52.262;6.830;2022-08-19T09:09:51;24.60;55.60
67870;DHT22;54673;52.262;6.830;2022-08-19T09:14:59;24.50;55.20
67870;DHT22;54673;52.262;6.830;2022-08-19T09:17:28;24.50;55.30
67870;DHT22;54673;52.262;6.830;2022-08-19T09:22:59;24.60;55.20
67870;DHT22;54673;52.262;6.830;2022-08-19T09:25:25;24.50;55.10
67870;DHT22;54673;52.262;6.830;2022-08-19T09:27:52;24.60;55.00
67870;DHT22;54673;52.262;6.830;2022-08-19T09:30:24;24.60;54.70
67870;DHT22;54673;52.262;6.830;2022-08-19T09:32:51;24.60;54.40
67870;DHT22;54673;52.262;6.830;2022-08-19T09:35:21;24.60;54.30
67870;DHT22;54673;52.262;6.830;2022-08-19T09:37:48;24.60;54.30
67870;DHT22;54673;52.262;6.830;2022-08-19T09:40:15;24.70;54.60
67870;DHT22;54673;52.262;6.830;2022-08-19T09:42:41;24.70;54.50
67870;DHT22;54673;52.262;6.830;2022-08-19T09:45:09;24.70;54.40
67870;DHT22;54673;52.262;6.830;2022-08-19T09:47:36;24.70;54.20
67870;DHT22;54673;52.262;6.830;2022-08-19T09:50:05;24.70;54.20
67870;DHT22;54673;52.262;6.830;2022-08-19T09:52:31;24.70;54.10
67870;DHT22;54673;52.262;6.830;2022-08-19T09:54:56;24.80;54.20
67870;DHT22;54673;52.262;6.830;2022-08-19T09:57:22;24.80;54.20
67870;DHT22;54673;52.262;6.830;2022-08-19T09:59:48;24.80;53.90
67870;DHT22;54673;52.262;6.830;2022-08-19T10:02:13;24.80;53.80
67870;DHT22;54673;52.262;6.830;2022-08-19T10:04:39;24.80;53.70
67870;DHT22;54673;52.262;6.830;2022-08-19T10:07:23;24.80;53.80
67870;DHT22;54673;52.262;6.830;2022-08-19T10:09:49;24.90;53.90
67870;DHT22;54673;52.262;6.830;2022-08-19T10:12:15;24.90;53.90
67870;DHT22;54673;52.262;6.830;2022-08-19T10:14:41;24.90;53.90
67870;DHT22;54673;52.262;6.830;2022-08-19T10:17:07;24.90;53.90
67870;DHT22;54673;52.262;6.830;2022-08-19T10:19:32;24.90;53.80
67870;DHT22;54673;52.262;6.830;2022-08-19T10:22:05;25.00;53.70
67870;DHT22;54673;52.262;6.830;2022-08-19T10:24:33;25.00;53.70
67870;DHT22;54673;52.262;6.830;2022-08-19T10:26:59;25.00;53.70
67870;DHT22;54673;52.262;6.830;2022-08-19T10:29:27;25.00;53.70
67870;DHT22;54673;52.262;6.830;2022-08-19T10:31:55;25.10;53.70
67870;DHT22;54673;52.262;6.830;2022-08-19T10:34:22;25.00;53.40
67870;DHT22;54673;52.262;6.830;2022-08-19T10:36:48;25.00;53.10
67870;DHT22;54673;52.262;6.830;2022-08-19T10:39:13;25.00;52.90
67870;DHT22;54673;52.262;6.830;2022-08-19T10:41:39;25.10;52.90
67870;DHT22;54673;52.262;6.830;2022-08-19T10:44:08;25.10;53.00
67870;DHT22;54673;52.262;6.830;2022-08-19T10:46:37;25.20;52.80
67870;DHT22;54673;52.262;6.830;2022-08-19T10:49:04;25.30;52.60
67870;DHT22;54673;52.262;6.830;2022-08-19T10:51:31;25.30;52.10
67870;DHT22;54673;52.262;6.830;2022-08-19T10:54:16;25.40;52.20
67870;DHT22;54673;52.262;6.830;2022-08-19T10:56:42;25.50;51.60
67870;DHT22;54673;52.262;6.830;2022-08-19T11:01:45;25.60;51.10
67870;DHT22;54673;52.262;6.830;2022-08-19T11:04:11;25.60;51.10
67870;DHT22;54673;52.262;6.830;2022-08-19T11:06:39;25.70;50.40
67870;DHT22;54673;52.262;6.830;2022-08-19T11:09:07;25.70;50.30
67870;DHT22;54673;52.262;6.830;2022-08-19T11:11:33;25.80;50.60
67870;DHT22;54673;52.262;6.830;2022-08-19T11:14:04;25.80;50.10
67870;DHT22;54673;52.262;6.830;2022-08-19T11:16:30;25.80;49.80
67870;DHT22;54673;52.262;6.830;2022-08-19T11:18:58;25.80;49.80
67870;DHT22;54673;52.262;6.830;2022-08-19T11:21:31;25.70;49.90
67870;DHT22;54673;52.262;6.830;2022-08-19T11:24:00;25.80;50.10
67870;DHT22;54673;52.262;6.830;2022-08-19T11:26:26;25.70;50.10
67870;DHT22;54673;52.262;6.830;2022-08-19T11:28:52;25.80;49.90
67870;DHT22;54673;52.262;6.830;2022-08-19T11:31:24;25.80;49.60
67870;DHT22;54673;52.262;6.830;2022-08-19T11:33:51;25.80;49.60
67870;DHT22;54673;52.262;6.830;2022-08-19T11:36:18;25.70;49.90
67870;DHT22;54673;52.262;6.830;2022-08-19T11:38:45;25.80;50.60
67870;DHT22;54673;52.262;6.830;2022-08-19T11:41:11;25.80;50.30
67870;DHT22;54673;52.262;6.830;2022-08-19T11:43:37;25.80;49.30
67870;DHT22;54673;52.262;6.830;2022-08-19T11:46:07;25.80;48.70
67870;DHT22;54673;52.262;6.830;2022-08-19T11:48:34;25.70;48.00
67870;DHT22;54673;52.262;6.830;2022-08-19T11:51:04;25.80;48.10
67870;DHT22;54673;52.262;6.830;2022-08-19T11:53:32;25.80;47.60
67870;DHT22;54673;52.262;6.830;2022-08-19T11:55:58;25.80;46.80
67870;DHT22;54673;52.262;6.830;2022-08-19T11:58:24;25.80;46.30
67870;DHT22;54673;52.262;6.830;2022-08-19T12:00:50;25.80;46.80
67870;DHT22;54673;52.262;6.830;2022-08-19T12:03:16;25.80;46.00
67870;DHT22;54673;52.262;6.830;2022-08-19T12:05:41;25.80;45.60
67870;DHT22;54673;52.262;6.830;2022-08-19T12:08:08;25.80;45.50
67870;DHT22;54673;52.262;6.830;2022-08-19T12:10:34;25.80;44.70
67870;DHT22;54673;52.262;6.830;2022-08-19T12:13:01;25.80;44.50
67870;DHT22;54673;52.262;6.830;2022-08-19T12:15:27;25.80;44.30
67870;DHT22;54673;52.262;6.830;2022-08-19T12:17:54;25.80;44.00
67870;DHT22;54673;52.262;6.830;2022-08-19T12:20:22;25.80;44.30
67870;DHT22;54673;52.262;6.830;2022-08-19T12:22:49;25.90;45.80
67870;DHT22;54673;52.262;6.830;2022-08-19T12:25:14;25.80;44.80
67870;DHT22;54673;52.262;6.830;2022-08-19T12:27:40;25.90;44.40
67870;DHT22;54673;52.262;6.830;2022-08-19T12:30:09;25.90;44.20
67870;DHT22;54673;52.262;6.830;2022-08-19T12:32:35;25.90;44.40
67870;DHT22;54673;52.262;6.830;2022-08-19T12:35:00;25.90;45.20
67870;DHT22;54673;52.262;6.830;2022-08-19T12:37:26;25.90;45.70
67870;DHT22;54673;52.262;6.830;2022-08-19T12:39:52;25.90;45.10
67870;DHT22;54673;52.262;6.830;2022-08-19T12:42:18;25.90;45.80
67870;DHT22;54673;52.262;6.830;2022-08-19T12:44:44;25.90;44.40
67870;DHT22;54673;52.262;6.830;2022-08-19T12:47:11;25.90;45.00
67870;DHT22;54673;52.262;6.830;2022-08-19T12:49:38;25.90;45.10
67870;DHT22;54673;52.262;6.830;2022-08-19T12:52:06;25.90;45.40
67870;DHT22;54673;52.262;6.830;2022-08-19T12:54:32;25.90;45.40
67870;DHT22;54673;52.262;6.830;2022-08-19T12:56:58;25.90;44.40
67870;DHT22;54673;52.262;6.830;2022-08-19T12:59:25;25.90;43.70
67870;DHT22;54673;52.262;6.830;2022-08-19T13:01:50;26.00;43.50
67870;DHT22;54673;52.262;6.830;2022-08-19T13:04:16;26.00;43.20
67870;DHT22;54673;52.262;6.830;2022-08-19T13:06:42;26.00;42.90
67870;DHT22;54673;52.262;6.830;2022-08-19T13:09:08;26.00;42.70
67870;DHT22;54673;52.262;6.830;2022-08-19T13:11:34;26.10;43.00
67870;DHT22;54673;52.262;6.830;2022-08-19T13:14:01;26.10;42.90
67870;DHT22;54673;52.262;6.830;2022-08-19T13:16:28;26.00;42.60
67870;DHT22;54673;52.262;6.830;2022-08-19T13:18:54;26.10;43.30
67870;DHT22;54673;52.262;6.830;2022-08-19T13:21:24;26.20;42.50
67870;DHT22;54673;52.262;6.830;2022-08-19T13:23:51;26.20;42.50
67870;DHT22;54673;52.262;6.830;2022-08-19T13:26:17;26.20;42.50
67870;DHT22;54673;52.262;6.830;2022-08-19T13:28:44;26.20;42.60
67870;DHT22;54673;52.262;6.830;2022-08-19T13:31:32;26.30;42.50
67870;DHT22;54673;52.262;6.830;2022-08-19T13:34:19;26.30;42.50
67870;DHT22;54673;52.262;6.830;2022-08-19T13:36:52;26.30;43.80
67870;DHT22;54673;52.262;6.830;2022-08-19T13:39:18;26.30;42.20
67870;DHT22;54673;52.262;6.830;2022-08-19T13:41:45;26.30;42.30
67870;DHT22;54673;52.262;6.830;2022-08-19T13:44:16;26.30;42.50
67870;DHT22;54673;52.262;6.830;2022-08-19T13:46:46;26.30;43.30
67870;DHT22;54673;52.262;6.830;2022-08-19T13:49:14;26.30;42.50
67870;DHT22;54673;52.262;6.830;2022-08-19T13:51:42;26.30;42.70
67870;DHT22;54673;52.262;6.830;2022-08-19T13:54:09;26.30;42.20
67870;DHT22;54673;52.262;6.830;2022-08-19T13:56:39;26.40;42.10
67870;DHT22;54673;52.262;6.830;2022-08-19T13:59:05;26.50;42.00
67870;DHT22;54673;52.262;6.830;2022-08-19T14:01:30;26.50;42.50
67870;DHT22;54673;52.262;6.830;2022-08-19T14:03:56;26.50;42.30
67870;DHT22;54673;52.262;6.830;2022-08-19T14:06:22;26.60;42.20
67870;DHT22;54673;52.262;6.830;2022-08-19T14:08:47;26.60;42.20
67870;DHT22;54673;52.262;6.830;2022-08-19T14:11:13;26.60;41.80
67870;DHT22;54673;52.262;6.830;2022-08-19T14:13:40;26.70;42.20
67870;DHT22;54673;52.262;6.830;2022-08-19T14:16:08;26.70;42.30
67870;DHT22;54673;52.262;6.830;2022-08-19T14:18:34;26.70;42.60
67870;DHT22;54673;52.262;6.830;2022-08-19T14:20:59;26.70;42.90
67870;DHT22;54673;52.262;6.830;2022-08-19T14:23:25;26.70;43.10
67870;DHT22;54673;52.262;6.830;2022-08-19T14:25:50;26.70;43.10
67870;DHT22;54673;52.262;6.830;2022-08-19T14:28:16;26.80;42.80
67870;DHT22;54673;52.262;6.830;2022-08-19T14:30:42;26.80;42.70
67870;DHT22;54673;52.262;6.830;2022-08-19T14:33:09;26.80;42.30
67870;DHT22;54673;52.262;6.830;2022-08-19T14:35:35;26.80;41.70
67870;DHT22;54673;52.262;6.830;2022-08-19T14:38:02;26.80;41.30
67870;DHT22;54673;52.262;6.830;2022-08-19T14:40:30;26.80;42.80
67870;DHT22;54673;52.262;6.830;2022-08-19T14:42:59;26.80;42.30
67870;DHT22;54673;52.262;6.830;2022-08-19T14:45:28;26.90;42.10
67870;DHT22;54673;52.262;6.830;2022-08-19T14:47:54;26.90;42.20
67870;DHT22;54673;52.262;6.830;2022-08-19T14:50:21;26.90;42.80
67870;DHT22;54673;52.262;6.830;2022-08-19T14:52:47;26.90;42.40
67870;DHT22;54673;52.262;6.830;2022-08-19T14:55:14;26.90;42.70
67870;DHT22;54673;52.262;6.830;2022-08-19T14:57:41;26.90;43.50
67870;DHT22;54673;52.262;6.830;2022-08-19T15:00:07;26.90;42.90
67870;DHT22;54673;52.262;6.830;2022-08-19T15:02:37;26.90;42.70
67870;DHT22;54673;52.262;6.830;2022-08-19T15:05:02;27.00;42.50
67870;DHT22;54673;52.262;6.830;2022-08-19T15:07:28;27.00;42.30
67870;DHT22;54673;52.262;6.830;2022-08-19T15:09:54;27.10;41.80
67870;DHT22;54673;52.262;6.830;2022-08-19T15:12:20;27.20;42.10
67870;DHT22;54673;52.262;6.830;2022-08-19T15:14:47;27.20;41.50
67870;DHT22;54673;52.262;6.830;2022-08-19T15:17:16;27.30;41.80
67870;DHT22;54673;52.262;6.830;2022-08-19T15:19:41;27.30;41.50
67870;DHT22;54673;52.262;6.830;2022-08-19T15:22:07;27.40;41.40
67870;DHT22;54673;52.262;6.830;2022-08-19T15:24:32;27.40;41.10
67870;DHT22;54673;52.262;6.830;2022-08-19T15:27:00;27.50;41.10
67870;DHT22;54673;52.262;6.830;2022-08-19T15:29:26;27.50;41.20
67870;DHT22;54673;52.262;6.830;2022-08-19T15:31:52;27.50;41.10
67870;DHT22;54673;52.262;6.830;2022-08-19T15:34:21;27.50;41.70
67870;DHT22;54673;52.262;6.830;2022-08-19T15:36:47;27.40;41.90
67870;DHT22;54673;52.262;6.830;2022-08-19T15:39:12;27.40;41.80
67870;DHT22;54673;52.262;6.830;2022-08-19T15:41:38;27.40;41.50
67870;DHT22;54673;52.262;6.830;2022-08-19T15:44:09;27.40;41.30
67870;DHT22;54673;52.262;6.830;2022-08-19T15:46:37;27.40;40.70
67870;DHT22;54673;52.262;6.830;2022-08-19T15:49:04;27.30;40.50